createdAt,value
2018-01-19T00:00:23.084Z,22.6
2018-01-19T00:01:23.817Z,21.6
2018-01-19T00:02:24.538Z,20.9
2018-01-19T00:03:25.314Z,21.5
2018-01-19T00:04:26.105Z,22.3
2018-01-19T00:05:26.814Z,22.3
2018-01-19T00:06:27.548Z,21.0
2018-01-19T00:07:28.358Z,21.2
2018-01-19T00:08:29.135Z,21.9
2018-01-19T00:09:29.858Z,23.0
2018-01-19T00:10:30.654Z,21.8
2018-01-19T00:11:31.388Z,20.8
2018-01-19T00:12:32.104Z,20.7
2018-01-19T00:13:32.905Z,21.5
2018-01-19T00:14:33.583Z,19.6
2018-01-19T00:15:34.308Z,21.1
2018-01-19T00:16:35.028Z,20.1
2018-01-19T00:17:35.750Z,19.9
2018-01-19T00:18:36.533Z,19.3
2018-01-19T00:19:37.269Z,18.7
2018-01-19T00:20:38.078Z,18.8
2018-01-19T00:21:38.804Z,19.0
2018-01-19T00:22:39.619Z,17.8
2018-01-19T00:23:40.395Z,19.1
2018-01-19T00:24:41.116Z,18.1
2018-01-19T00:25:41.937Z,17.6
2018-01-19T00:26:42.655Z,17.4
2018-01-19T00:27:43.387Z,18.4
2018-01-19T00:28:44.164Z,17.8
2018-01-19T00:29:44.873Z,18.3
2018-01-19T00:30:45.649Z,17.4
2018-01-19T00:31:46.378Z,18.0
2018-01-19T00:32:47.103Z,19.6
2018-01-19T00:33:47.822Z,18.5
2018-01-19T00:34:48.548Z,19.1
2018-01-19T00:35:49.279Z,18.6
2018-01-19T00:36:50.094Z,19.2
2018-01-19T00:37:50.823Z,18.1
2018-01-19T00:38:51.558Z,19.4
2018-01-19T00:39:52.306Z,18.7
2018-01-19T00:40:53.007Z,19.2
2018-01-19T00:41:53.733Z,19.0
2018-01-19T00:42:54.559Z,18.2
2018-01-19T00:43:55.358Z,19.5
2018-01-19T00:44:56.077Z,18.8
2018-01-19T00:45:56.885Z,20.0
2018-01-19T00:46:57.604Z,19.4
2018-01-19T00:47:58.458Z,19.8
2018-01-19T00:48:59.244Z,20.3
2018-01-19T00:50:00.052Z,20.5
2018-01-19T00:51:00.772Z,20.0
2018-01-19T00:52:01.494Z,20.3
2018-01-19T00:53:02.278Z,20.5
2018-01-19T00:54:03.006Z,20.0
2018-01-19T00:55:03.737Z,21.0
2018-01-19T00:56:04.518Z,19.7
2018-01-19T00:57:05.251Z,19.6
2018-01-19T00:58:06.022Z,19.4
2018-01-19T00:59:06.742Z,19.5
2018-01-19T01:00:07.483Z,19.6
2018-01-19T01:01:08.260Z,19.4
2018-01-19T01:02:08.979Z,19.2
2018-01-19T01:03:09.772Z,19.3
2018-01-19T01:04:10.481Z,18.6
2018-01-19T01:05:11.273Z,19.1
2018-01-19T01:06:12.007Z,19.1
2018-01-19T01:07:12.765Z,20.1
2018-01-19T01:08:13.490Z,19.6
2018-01-19T01:09:14.214Z,19.3
2018-01-19T01:10:14.951Z,18.9
2018-01-19T01:11:15.729Z,19.6
2018-01-19T01:12:16.454Z,19.2
2018-01-19T01:13:17.181Z,19.9
2018-01-19T01:14:17.945Z,19.4
2018-01-19T01:15:18.668Z,20.0
2018-01-19T01:16:19.402Z,21.3
2018-01-19T01:17:20.193Z,19.9
2018-01-19T01:18:20.909Z,21.3
2018-01-19T01:19:21.675Z,20.5
2018-01-19T01:20:22.394Z,22.2
2018-01-19T01:21:23.130Z,23.1
2018-01-19T01:22:23.928Z,22.7
2018-01-19T01:23:24.658Z,23.3
2018-01-19T01:24:25.390Z,23.5
2018-01-19T01:25:26.226Z,24.3
2018-01-19T01:26:26.954Z,23.3
2018-01-19T01:27:27.683Z,23.6
2018-01-19T01:28:28.406Z,26.5
2018-01-19T01:29:29.129Z,26.1
2018-01-19T01:30:29.894Z,24.6
2018-01-19T01:31:30.616Z,26.6
2018-01-19T01:32:31.343Z,27.0
2018-01-19T01:33:32.067Z,26.0
2018-01-19T01:34:32.867Z,26.9
2018-01-19T01:35:33.611Z,27.8
2018-01-19T01:36:34.338Z,28.6
2018-01-19T01:37:35.066Z,29.6
2018-01-19T01:38:35.864Z,29.6
2018-01-19T01:39:36.600Z,28.8
2018-01-19T01:40:37.464Z,28.9
2018-01-19T01:41:38.252Z,29.2
2018-01-19T01:42:38.986Z,32.5
2018-01-19T01:43:39.774Z,29.4
2018-01-19T01:44:40.496Z,29.6
2018-01-19T01:45:41.262Z,30.9
2018-01-19T01:46:41.989Z,31.2
2018-01-19T01:47:42.718Z,31.4
2018-01-19T01:48:43.435Z,30.9
2018-01-19T01:49:44.172Z,31.4
2018-01-19T01:50:44.981Z,30.6
2018-01-19T01:51:45.772Z,33.0
2018-01-19T01:52:46.499Z,31.9
2018-01-19T01:53:47.229Z,34.5
2018-01-19T01:54:47.939Z,33.6
2018-01-19T01:55:48.661Z,31.5
2018-01-19T01:56:49.387Z,32.0
2018-01-19T01:57:50.115Z,32.9
2018-01-19T01:58:50.835Z,35.9
2018-01-19T01:59:51.558Z,34.6
2018-01-19T02:00:52.324Z,34.4
2018-01-19T02:01:53.044Z,34.9
2018-01-19T02:02:53.851Z,35.3
2018-01-19T02:03:54.570Z,33.7
2018-01-19T02:04:55.287Z,37.1
2018-01-19T02:05:56.116Z,36.3
2018-01-19T02:06:56.888Z,35.0
2018-01-19T02:07:57.613Z,35.5
2018-01-19T02:08:58.379Z,35.9
2018-01-19T02:09:59.109Z,37.0
2018-01-19T02:10:59.826Z,37.2
2018-01-19T02:12:00.595Z,37.0
2018-01-19T02:13:01.309Z,37.1
2018-01-19T02:14:02.039Z,35.5
2018-01-19T02:15:02.783Z,35.5
2018-01-19T02:16:03.518Z,36.6
2018-01-19T02:17:04.328Z,34.5
2018-01-19T02:18:05.051Z,36.9
2018-01-19T02:19:05.766Z,36.2
2018-01-19T02:20:06.487Z,34.4
2018-01-19T02:21:07.281Z,36.9
2018-01-19T02:22:08.024Z,36.3
2018-01-19T02:23:08.735Z,38.3
2018-01-19T02:24:09.458Z,41.2
2018-01-19T02:25:10.173Z,43.2
2018-01-19T02:26:10.950Z,41.6
2018-01-19T02:27:11.733Z,40.6
2018-01-19T02:28:12.469Z,42.7
2018-01-19T02:29:13.206Z,41.5
2018-01-19T02:30:13.929Z,45.2
2018-01-19T02:31:14.644Z,43.4
2018-01-19T02:32:15.414Z,41.7
2018-01-19T02:33:16.140Z,40.1
2018-01-19T02:34:16.978Z,42.9
2018-01-19T02:35:17.694Z,42.6
2018-01-19T02:36:18.446Z,42.3
2018-01-19T02:37:19.171Z,43.6
2018-01-19T02:38:19.948Z,42.1
2018-01-19T02:39:20.666Z,41.8
2018-01-19T02:40:21.457Z,44.5
2018-01-19T02:41:22.202Z,44.0
2018-01-19T02:42:23.008Z,43.9
2018-01-19T02:43:23.743Z,41.7
2018-01-19T02:44:24.541Z,44.5
2018-01-19T02:45:25.269Z,43.7
2018-01-19T02:46:25.986Z,43.5
2018-01-19T02:47:26.700Z,43.7
2018-01-19T02:48:27.498Z,44.5
2018-01-19T02:49:28.236Z,46.5
2018-01-19T02:50:28.951Z,43.1
2018-01-19T02:51:29.672Z,44.1
2018-01-19T02:52:30.407Z,44.6
2018-01-19T02:53:31.244Z,45.0
2018-01-19T02:54:31.959Z,49.4
2018-01-19T02:55:32.726Z,47.5
2018-01-19T02:56:33.449Z,47.3
2018-01-19T02:57:34.180Z,51.3
2018-01-19T02:58:34.970Z,47.2
2018-01-19T02:59:35.732Z,52.6
2018-01-19T03:00:36.517Z,52.0
2018-01-19T03:01:37.284Z,51.5
2018-01-19T03:02:38.016Z,51.0
2018-01-19T03:03:38.749Z,54.6
2018-01-19T03:04:39.478Z,50.1
2018-01-19T03:05:40.237Z,55.2
2018-01-19T03:06:40.962Z,55.2
2018-01-19T03:07:41.675Z,53.3
2018-01-19T03:08:42.389Z,56.7
2018-01-19T03:09:43.545Z,54.5
2018-01-19T03:10:44.254Z,53.2
2018-01-19T03:11:44.978Z,52.6
2018-01-19T03:12:45.712Z,55.4
2018-01-19T03:13:46.497Z,62.9
2018-01-19T03:14:47.286Z,61.3
2018-01-19T03:15:48.108Z,58.2
2018-01-19T03:16:48.839Z,57.2
2018-01-19T03:17:49.559Z,60.6
2018-01-19T03:18:50.289Z,56.6
2018-01-19T03:19:51.087Z,58.6
2018-01-19T03:20:51.869Z,64.7
2018-01-19T03:21:52.608Z,61.0
2018-01-19T03:22:53.347Z,61.8
2018-01-19T03:23:54.145Z,62.2
2018-01-19T03:24:54.890Z,60.5
2018-01-19T03:25:55.687Z,60.4
2018-01-19T03:26:56.419Z,63.2
2018-01-19T03:27:57.150Z,59.9
2018-01-19T03:28:57.935Z,64.9
2018-01-19T03:29:58.659Z,62.4
2018-01-19T03:30:59.382Z,64.9
2018-01-19T03:32:00.151Z,67.1
2018-01-19T03:33:00.868Z,65.4
2018-01-19T03:34:01.599Z,65.9
2018-01-19T03:35:02.369Z,65.2
2018-01-19T03:36:03.094Z,66.4
2018-01-19T03:37:03.811Z,69.6
2018-01-19T03:38:04.621Z,69.3
2018-01-19T03:39:05.359Z,70.9
2018-01-19T03:40:06.100Z,69.6
2018-01-19T03:41:06.889Z,72.2
2018-01-19T03:42:07.621Z,69.1
2018-01-19T03:43:08.394Z,68.3
2018-01-19T03:44:09.129Z,67.7
2018-01-19T03:45:09.853Z,70.2
2018-01-19T03:46:10.656Z,76.3
2018-01-19T03:47:11.372Z,72.1
2018-01-19T03:48:12.215Z,68.8
2018-01-19T03:49:12.940Z,70.5
2018-01-19T03:50:13.673Z,66.1
2018-01-19T03:51:14.448Z,71.9
2018-01-19T03:52:15.246Z,69.5
2018-01-19T03:53:16.084Z,66.1
2018-01-19T03:54:16.815Z,66.2
2018-01-19T03:55:23.876Z,68.3
2018-01-19T03:56:24.600Z,67.6
2018-01-19T03:57:25.386Z,69.0
2018-01-19T03:58:26.190Z,69.0
2018-01-19T03:59:26.920Z,68.4
2018-01-19T04:00:27.709Z,69.3
2018-01-19T04:01:28.425Z,70.0
2018-01-19T04:02:29.215Z,70.8
2018-01-19T04:03:30.014Z,73.5
2018-01-19T04:04:30.871Z,71.8
2018-01-19T04:06:45.855Z,77.8
2018-01-19T04:07:46.650Z,78.9
2018-01-19T04:08:47.385Z,76.5
2018-01-19T04:09:48.109Z,78.7
2018-01-19T04:10:48.845Z,75.0
2018-01-19T04:11:49.600Z,76.2
2018-01-19T04:12:50.326Z,80.5
2018-01-19T04:13:51.114Z,83.6
2018-01-19T04:16:06.212Z,85.4
2018-01-19T04:17:06.923Z,77.8
2018-01-19T04:18:07.734Z,82.5
2018-01-19T04:19:08.460Z,82.4
2018-01-19T04:20:09.194Z,81.4
2018-01-19T04:21:09.911Z,84.0
2018-01-19T04:22:10.689Z,87.6
2018-01-19T04:23:11.420Z,88.3
2018-01-19T04:24:12.142Z,86.6
2018-01-19T04:25:12.913Z,87.8
2018-01-19T04:26:13.645Z,85.2
2018-01-19T04:27:14.361Z,87.9
2018-01-19T04:28:15.096Z,85.7
2018-01-19T04:29:15.924Z,88.2
2018-01-19T04:30:16.714Z,88.9
2018-01-19T04:31:17.457Z,90.1
2018-01-19T04:32:18.182Z,89.1
2018-01-19T04:33:18.994Z,90.7
2018-01-19T04:34:19.718Z,88.9
2018-01-19T04:35:20.453Z,93.3
2018-01-19T04:36:21.304Z,91.5
2018-01-19T04:37:22.038Z,94.9
2018-01-19T04:38:22.845Z,87.5
2018-01-19T04:39:23.569Z,89.4
2018-01-19T04:40:24.302Z,90.4
2018-01-19T04:41:25.018Z,90.7
2018-01-19T04:42:25.834Z,89.4
2018-01-19T04:43:26.553Z,88.6
2018-01-19T04:44:27.302Z,93.9
2018-01-19T04:45:28.073Z,93.5
2018-01-19T04:46:28.788Z,93.1
2018-01-19T04:47:29.576Z,98.0
2018-01-19T04:48:30.311Z,96.5
2018-01-19T04:49:31.044Z,95.2
2018-01-19T04:50:31.765Z,92.8
2018-01-19T04:51:32.540Z,97.3
2018-01-19T04:52:33.307Z,98.1
2018-01-19T04:53:34.026Z,94.5
2018-01-19T04:54:34.736Z,96.8
2018-01-19T04:55:35.469Z,97.3
2018-01-19T04:56:36.259Z,101.1
2018-01-19T04:57:36.995Z,97.3
2018-01-19T04:58:37.715Z,99.1
2018-01-19T04:59:38.531Z,102.1
2018-01-19T05:00:39.264Z,99.9
2018-01-19T05:01:39.996Z,99.2
2018-01-19T05:02:40.797Z,101.2
2018-01-19T05:03:41.525Z,100.0
2018-01-19T05:04:42.295Z,96.9
2018-01-19T05:05:43.100Z,96.2
2018-01-19T05:06:43.840Z,102.1
2018-01-19T05:07:44.582Z,94.5
2018-01-19T05:08:45.414Z,97.7
2018-01-19T05:09:46.229Z,100.0
2018-01-19T05:10:47.004Z,97.2
2018-01-19T05:11:47.724Z,96.9
2018-01-19T05:12:48.502Z,96.8
2018-01-19T05:13:49.294Z,97.7
2018-01-19T05:14:50.011Z,97.8
2018-01-19T05:15:50.736Z,96.7
2018-01-19T05:16:51.470Z,97.1
2018-01-19T05:17:52.260Z,97.7
2018-01-19T05:18:52.979Z,94.5
2018-01-19T05:19:53.754Z,94.9
2018-01-19T05:20:54.480Z,95.5
2018-01-19T05:21:55.194Z,95.4
2018-01-19T05:22:55.922Z,94.5
2018-01-19T05:23:56.744Z,97.8
2018-01-19T05:24:57.546Z,99.2
2018-01-19T05:25:58.270Z,95.9
2018-01-19T05:26:58.995Z,97.7
2018-01-19T05:27:59.793Z,100.4
2018-01-19T05:29:00.519Z,100.1
2018-01-19T05:30:01.291Z,98.8
2018-01-19T05:31:02.089Z,101.5
2018-01-19T05:32:02.810Z,102.1
2018-01-19T05:33:03.533Z,103.4
2018-01-19T05:34:04.252Z,107.4
2018-01-19T05:35:04.971Z,101.6
2018-01-19T05:36:05.701Z,104.7
2018-01-19T05:37:06.490Z,105.7
2018-01-19T05:38:07.218Z,103.8
2018-01-19T05:39:07.944Z,105.5
2018-01-19T05:40:08.673Z,104.3
2018-01-19T05:41:09.408Z,106.8
2018-01-19T05:42:10.135Z,102.4
2018-01-19T05:43:10.905Z,108.1
2018-01-19T05:44:11.698Z,104.9
2018-01-19T05:45:12.409Z,102.5
2018-01-19T05:46:13.143Z,104.4
2018-01-19T05:47:13.875Z,100.5
2018-01-19T05:48:14.732Z,102.2
2018-01-19T05:49:15.449Z,100.2
2018-01-19T05:50:16.173Z,98.0
2018-01-19T05:51:16.896Z,97.1
2018-01-19T05:52:17.710Z,97.9
2018-01-19T05:53:18.495Z,97.7
2018-01-19T05:54:19.307Z,93.7
2018-01-19T05:55:20.089Z,96.0
2018-01-19T05:56:20.822Z,98.1
2018-01-19T05:57:21.620Z,97.9
2018-01-19T05:58:22.390Z,98.3
2018-01-19T05:59:23.118Z,97.5
2018-01-19T06:00:23.932Z,94.3
2018-01-19T06:01:24.731Z,93.0
2018-01-19T06:02:25.452Z,93.4
2018-01-19T06:03:26.361Z,89.6
2018-01-19T06:04:27.040Z,92.4
2018-01-19T06:05:27.791Z,95.8
2018-01-19T06:06:28.569Z,92.5
2018-01-19T06:07:29.299Z,90.4
2018-01-19T06:08:30.066Z,94.3
2018-01-19T06:09:30.805Z,91.0
2018-01-19T06:10:31.587Z,90.9
2018-01-19T06:11:32.311Z,90.0
2018-01-19T06:12:33.031Z,92.7
2018-01-19T06:13:33.810Z,91.7
2018-01-19T06:14:34.609Z,94.4
2018-01-19T06:15:35.344Z,90.1
2018-01-19T06:16:36.070Z,93.3
2018-01-19T06:17:36.806Z,91.4
2018-01-19T06:18:37.580Z,87.4
2018-01-19T06:19:38.299Z,88.7
2018-01-19T06:20:39.138Z,89.4
2018-01-19T06:21:39.866Z,90.3
2018-01-19T06:22:40.748Z,91.5
2018-01-19T06:23:41.474Z,88.7
2018-01-19T06:24:42.245Z,91.1
2018-01-19T06:25:42.993Z,90.2
2018-01-19T06:26:43.820Z,90.4
2018-01-19T06:27:44.653Z,95.9
2018-01-19T06:28:45.378Z,90.2
2018-01-19T06:29:46.177Z,92.5
2018-01-19T06:30:46.906Z,89.2
2018-01-19T06:31:47.628Z,89.7
2018-01-19T06:32:48.409Z,90.5
2018-01-19T06:33:49.134Z,92.3
2018-01-19T06:34:49.929Z,89.1
2018-01-19T06:35:50.706Z,88.8
2018-01-19T06:36:51.419Z,88.5
2018-01-19T06:37:52.200Z,88.4
2018-01-19T06:38:52.921Z,88.7
2018-01-19T06:39:53.649Z,85.7
2018-01-19T06:40:54.422Z,87.5
2018-01-19T06:41:55.210Z,87.7
2018-01-19T06:42:55.984Z,85.8
2018-01-19T06:43:56.687Z,84.7
2018-01-19T06:44:57.421Z,85.8
2018-01-19T06:45:58.142Z,85.1
2018-01-19T06:46:58.915Z,81.7
2018-01-19T06:47:59.731Z,81.8
2018-01-19T06:49:00.456Z,81.9
2018-01-19T06:50:01.334Z,82.7
2018-01-19T06:51:02.067Z,81.2
2018-01-19T06:52:03.226Z,81.2
2018-01-19T06:53:04.224Z,75.8
2018-01-19T06:54:04.892Z,74.0
2018-01-19T06:55:05.739Z,75.2
2018-01-19T06:56:06.461Z,74.8
2018-01-19T06:57:07.294Z,73.8
2018-01-19T06:58:08.097Z,72.8
2018-01-19T06:59:08.811Z,74.7
2018-01-19T07:00:09.584Z,74.5
2018-01-19T07:01:10.314Z,75.3
2018-01-19T07:02:11.107Z,73.1
2018-01-19T07:03:11.877Z,75.1
2018-01-19T07:04:12.670Z,78.4
2018-01-19T07:05:13.378Z,73.9
2018-01-19T07:06:14.148Z,73.0
2018-01-19T07:07:15.020Z,70.9
2018-01-19T07:08:15.750Z,72.6
2018-01-19T07:09:16.466Z,73.4
2018-01-19T07:10:17.198Z,70.0
2018-01-19T07:11:17.921Z,68.6
2018-01-19T07:12:18.695Z,66.3
2018-01-19T07:13:19.432Z,69.7
2018-01-19T07:14:20.206Z,70.1
2018-01-19T07:15:20.920Z,69.9
2018-01-19T07:16:21.660Z,67.0
2018-01-19T07:17:22.386Z,69.6
2018-01-19T07:18:23.171Z,67.8
2018-01-19T07:19:23.930Z,66.8
2018-01-19T07:20:24.662Z,65.7
2018-01-19T07:21:25.449Z,65.8
2018-01-19T07:22:26.255Z,65.0
2018-01-19T07:23:27.005Z,67.0
2018-01-19T07:24:27.788Z,66.6
2018-01-19T07:25:28.565Z,67.2
2018-01-19T07:26:29.304Z,70.8
2018-01-19T07:27:30.040Z,69.9
2018-01-19T07:28:30.760Z,69.9
2018-01-19T07:29:31.490Z,67.5
2018-01-19T07:30:32.281Z,65.5
2018-01-19T07:31:33.007Z,68.2
2018-01-19T07:32:33.732Z,68.7
2018-01-19T07:33:34.527Z,67.9
2018-01-19T07:34:35.260Z,66.7
2018-01-19T07:35:36.058Z,66.4
2018-01-19T07:36:36.825Z,66.1
2018-01-19T07:37:37.614Z,67.3
2018-01-19T07:38:38.277Z,68.7
2018-01-19T07:39:39.012Z,67.0
2018-01-19T07:40:39.790Z,70.4
2018-01-19T07:41:40.573Z,67.3
2018-01-19T07:42:41.390Z,70.2
2018-01-19T07:43:42.167Z,68.4
2018-01-19T07:44:42.886Z,67.0
2018-01-19T07:45:43.680Z,62.7
2018-01-19T07:46:44.477Z,61.9
2018-01-19T07:47:45.386Z,61.7
2018-01-19T07:48:46.480Z,61.2
2018-01-19T07:49:48.124Z,62.5
2018-01-19T07:50:49.071Z,62.7
2018-01-19T07:51:49.857Z,64.6
2018-01-19T07:52:51.928Z,65.7
2018-01-19T07:53:53.704Z,64.2
2018-01-19T07:54:54.651Z,63.9
2018-01-19T07:55:55.346Z,67.2
2018-01-19T07:56:56.077Z,65.7
2018-01-19T07:57:56.771Z,66.8
2018-01-19T07:58:57.494Z,64.4
2018-01-19T07:59:58.295Z,64.1
2018-01-19T08:00:59.045Z,60.9
2018-01-19T08:01:59.811Z,58.5
2018-01-19T08:03:00.537Z,58.7
2018-01-19T08:04:01.260Z,55.4
2018-01-19T08:05:02.141Z,53.3
2018-01-19T08:06:02.872Z,53.8
2018-01-19T08:07:03.601Z,52.9
2018-01-19T08:08:04.334Z,50.8
2018-01-19T08:09:05.067Z,52.4
2018-01-19T08:10:05.801Z,51.9
2018-01-19T08:11:06.539Z,52.2
2018-01-19T08:12:07.343Z,52.6
2018-01-19T08:13:08.047Z,51.1
2018-01-19T08:14:08.761Z,50.3
2018-01-19T08:15:09.498Z,50.4
2018-01-19T08:16:10.211Z,50.1
2018-01-19T08:17:10.943Z,50.4
2018-01-19T08:18:11.666Z,50.1
2018-01-19T08:19:12.395Z,48.7
2018-01-19T08:20:13.136Z,48.3
2018-01-19T08:21:13.879Z,48.9
2018-01-19T08:22:14.601Z,47.4
2018-01-19T08:23:15.371Z,46.5
2018-01-19T08:24:16.102Z,47.0
2018-01-19T08:25:16.867Z,46.6
2018-01-19T08:26:17.650Z,45.8
2018-01-19T08:27:18.447Z,45.0
2018-01-19T08:28:19.288Z,45.7
2018-01-19T08:29:20.077Z,45.0
2018-01-19T08:30:20.829Z,44.8
2018-01-19T08:31:21.607Z,45.3
2018-01-19T08:32:22.350Z,43.5
2018-01-19T08:33:23.084Z,44.3
2018-01-19T08:34:23.907Z,43.8
2018-01-19T08:35:24.668Z,42.3
2018-01-19T08:36:25.764Z,43.6
2018-01-19T08:37:26.661Z,42.9
2018-01-19T08:38:27.499Z,42.9
2018-01-19T08:39:28.310Z,45.7
2018-01-19T08:40:29.046Z,43.4
2018-01-19T08:41:29.773Z,45.1
2018-01-19T08:42:30.509Z,44.5
2018-01-19T08:43:31.234Z,43.3
2018-01-19T08:44:32.097Z,42.5
2018-01-19T08:45:32.907Z,42.7
2018-01-19T08:46:33.645Z,40.5
2018-01-19T08:47:34.435Z,40.0
2018-01-19T08:48:35.220Z,38.6
2018-01-19T08:49:35.940Z,37.4
2018-01-19T08:50:36.673Z,38.0
2018-01-19T08:51:37.460Z,38.0
2018-01-19T08:52:38.230Z,37.6
2018-01-19T08:53:38.956Z,37.3
2018-01-19T08:54:39.680Z,37.1
2018-01-19T08:55:40.426Z,35.5
2018-01-19T08:56:41.159Z,34.6
2018-01-19T08:57:41.877Z,35.3
2018-01-19T08:58:42.610Z,34.0
2018-01-19T08:59:43.409Z,33.3
2018-01-19T09:00:44.181Z,32.1
2018-01-19T09:01:44.900Z,31.4
2018-01-19T09:02:45.615Z,30.5
2018-01-19T09:03:46.335Z,28.3
2018-01-19T09:04:47.080Z,27.7
2018-01-19T09:05:47.846Z,28.9
2018-01-19T09:06:48.595Z,28.4
2018-01-19T09:07:49.317Z,29.1
2018-01-19T09:08:50.050Z,29.8
2018-01-19T09:09:50.786Z,30.1
2018-01-19T09:10:51.570Z,30.0
2018-01-19T09:11:52.306Z,29.7
2018-01-19T09:12:53.103Z,29.6
2018-01-19T09:13:53.837Z,30.4
2018-01-19T09:14:54.546Z,30.8
2018-01-19T09:15:55.298Z,30.5
2018-01-19T09:16:56.093Z,29.1
2018-01-19T09:17:56.831Z,32.0
2018-01-19T09:18:57.570Z,29.5
2018-01-19T09:19:58.301Z,32.6
2018-01-19T09:20:59.102Z,31.1
2018-01-19T09:21:59.825Z,30.4
2018-01-19T09:23:00.556Z,29.2
2018-01-19T09:24:01.271Z,30.8
2018-01-19T09:25:02.001Z,30.8
2018-01-19T09:26:02.786Z,32.1
2018-01-19T09:27:03.594Z,31.1
2018-01-19T09:28:04.317Z,31.5
2018-01-19T09:29:05.069Z,31.8
2018-01-19T09:30:05.804Z,32.5
2018-01-19T09:31:06.607Z,33.7
2018-01-19T09:32:07.391Z,30.3
2018-01-19T09:33:08.116Z,31.7
2018-01-19T09:34:08.862Z,33.1
2018-01-19T09:35:09.601Z,31.8
2018-01-19T09:36:10.320Z,30.7
2018-01-19T09:37:11.060Z,32.1
2018-01-19T09:38:11.777Z,31.4
2018-01-19T09:39:12.516Z,32.2
2018-01-19T09:40:13.299Z,32.2
2018-01-19T09:41:14.040Z,31.1
2018-01-19T09:42:14.810Z,31.5
2018-01-19T09:43:15.549Z,34.0
2018-01-19T09:44:16.272Z,32.9
2018-01-19T09:45:17.059Z,32.1
2018-01-19T09:46:17.880Z,31.4
2018-01-19T09:47:18.621Z,33.1
2018-01-19T09:48:19.400Z,32.0
2018-01-19T09:49:20.117Z,34.7
2018-01-19T09:50:20.906Z,32.2
2018-01-19T09:51:21.670Z,32.2
2018-01-19T09:52:22.404Z,33.8
2018-01-19T09:53:23.123Z,34.4
2018-01-19T09:54:23.879Z,30.4
2018-01-19T09:55:24.679Z,32.8
2018-01-19T09:56:25.457Z,31.1
2018-01-19T09:57:26.272Z,31.6
2018-01-19T09:58:26.996Z,32.5
2018-01-19T09:59:27.723Z,31.8
2018-01-19T10:00:28.450Z,31.8
2018-01-19T10:01:29.275Z,30.8
2018-01-19T10:02:30.118Z,29.9
2018-01-19T10:03:30.851Z,31.4
2018-01-19T10:04:31.586Z,28.9
2018-01-19T10:05:32.429Z,30.6
2018-01-19T10:06:33.223Z,29.6
2018-01-19T10:07:33.952Z,28.7
2018-01-19T10:08:34.776Z,30.6
2018-01-19T10:09:35.504Z,29.0
2018-01-19T10:10:36.328Z,28.6
2018-01-19T10:11:37.103Z,28.1
2018-01-19T10:12:37.873Z,29.3
2018-01-19T10:13:38.724Z,28.3
2018-01-19T10:14:39.526Z,26.8
2018-01-19T10:15:40.310Z,28.2
2018-01-19T10:16:41.030Z,28.2
2018-01-19T10:17:41.830Z,27.3
2018-01-19T10:18:42.547Z,25.8
2018-01-19T10:19:43.283Z,25.9
2018-01-19T10:20:44.036Z,25.8
2018-01-19T10:21:44.766Z,25.4
2018-01-19T10:22:45.493Z,25.1
2018-01-19T10:23:46.264Z,26.1
2018-01-19T10:24:47.066Z,25.2
2018-01-19T10:25:47.796Z,26.1
2018-01-19T10:26:48.516Z,25.5
2018-01-19T10:27:49.285Z,25.8
2018-01-19T10:28:50.087Z,25.5
2018-01-19T10:29:50.813Z,25.3
2018-01-19T10:30:51.611Z,23.8
2018-01-19T10:31:52.349Z,25.1
2018-01-19T10:32:53.151Z,24.6
2018-01-19T10:33:53.865Z,22.3
2018-01-19T10:34:54.602Z,23.6
2018-01-19T10:35:55.397Z,21.4
2018-01-19T10:36:56.153Z,22.3
2018-01-19T10:37:56.880Z,20.2
2018-01-19T10:38:57.600Z,21.5
2018-01-19T10:39:58.327Z,20.2
2018-01-19T10:40:59.051Z,20.1
2018-01-19T10:41:59.771Z,18.8
2018-01-19T10:43:00.494Z,18.9
2018-01-19T10:44:01.302Z,16.8
2018-01-19T10:45:01.998Z,17.4
2018-01-19T10:46:02.730Z,17.3
2018-01-19T10:47:03.469Z,16.8
2018-01-19T10:48:04.194Z,17.4
2018-01-19T10:49:04.976Z,16.2
2018-01-19T10:50:05.711Z,15.7
2018-01-19T10:51:06.511Z,15.7
2018-01-19T10:52:07.230Z,15.6
2018-01-19T10:53:07.960Z,15.6
2018-01-19T10:54:08.696Z,14.6
2018-01-19T10:55:09.476Z,15.0
2018-01-19T10:56:10.193Z,15.1
2018-01-19T10:57:10.920Z,14.0
2018-01-19T10:58:11.671Z,14.9
2018-01-19T10:59:12.451Z,14.6
2018-01-19T11:00:13.181Z,15.3
2018-01-19T11:01:13.919Z,14.9
2018-01-19T11:02:14.703Z,14.6
2018-01-19T11:03:15.495Z,14.0
2018-01-19T11:04:16.226Z,16.0
2018-01-19T11:05:17.005Z,14.7
2018-01-19T11:06:17.736Z,15.0
2018-01-19T11:07:18.527Z,15.2
2018-01-19T11:08:19.197Z,15.1
2018-01-19T11:09:19.930Z,14.9
2018-01-19T11:10:20.668Z,15.6
2018-01-19T11:11:21.402Z,16.1
2018-01-19T11:12:22.118Z,15.0
2018-01-19T11:13:22.847Z,16.7
2018-01-19T11:14:23.585Z,16.9
2018-01-19T11:15:24.399Z,17.5
2018-01-19T11:16:25.198Z,17.5
2018-01-19T11:17:26.047Z,17.7
2018-01-19T11:18:26.894Z,18.5
2018-01-19T11:19:27.636Z,17.2
2018-01-19T11:20:28.360Z,17.9
2018-01-19T11:21:29.086Z,18.7
2018-01-19T11:22:29.828Z,18.9
2018-01-19T11:23:30.552Z,18.2
2018-01-19T11:24:31.337Z,19.0
2018-01-19T11:25:32.064Z,18.2
2018-01-19T11:26:32.786Z,17.9
2018-01-19T11:27:33.531Z,17.8
2018-01-19T11:28:34.254Z,18.0
2018-01-19T11:29:35.071Z,19.2
2018-01-19T11:30:35.844Z,18.6
2018-01-19T11:31:36.651Z,17.6
2018-01-19T11:32:37.446Z,18.1
2018-01-19T11:33:38.263Z,19.2
2018-01-19T11:34:39.020Z,19.4
2018-01-19T11:35:39.767Z,19.5
2018-01-19T11:36:40.606Z,19.5
2018-01-19T11:37:41.397Z,20.5
2018-01-19T11:38:42.130Z,20.5
2018-01-19T11:39:43.918Z,19.4
2018-01-19T11:40:44.889Z,20.2
2018-01-19T11:41:45.671Z,20.4
2018-01-19T11:42:46.396Z,20.2
2018-01-19T11:43:47.128Z,20.1
2018-01-19T11:44:47.917Z,20.8
2018-01-19T11:45:48.651Z,21.7
2018-01-19T11:46:49.445Z,22.9
2018-01-19T11:47:50.245Z,22.0
2018-01-19T11:48:51.050Z,22.1
2018-01-19T11:49:51.777Z,22.6
2018-01-19T11:50:52.526Z,22.5
2018-01-19T11:51:53.302Z,21.9
2018-01-19T11:52:54.035Z,21.1
2018-01-19T11:53:54.831Z,21.7
2018-01-19T11:54:55.563Z,21.6
2018-01-19T11:55:56.289Z,22.9
2018-01-19T11:56:57.090Z,21.9
2018-01-19T11:57:57.808Z,23.7
2018-01-19T11:58:58.631Z,21.9
2018-01-19T11:59:59.377Z,24.3
2018-01-19T12:01:00.215Z,24.1
2018-01-19T12:02:00.932Z,22.9
2018-01-19T12:03:01.728Z,22.6
2018-01-19T12:04:02.499Z,22.6
2018-01-19T12:05:03.311Z,23.5
2018-01-19T12:06:04.143Z,23.6
2018-01-19T12:07:04.871Z,23.1
2018-01-19T12:08:05.596Z,22.9
2018-01-19T12:09:06.360Z,22.7
2018-01-19T12:10:07.100Z,24.8
2018-01-19T12:11:07.871Z,22.0
2018-01-19T12:12:08.592Z,24.2
2018-01-19T12:13:09.364Z,23.6
2018-01-19T12:14:10.094Z,22.4
2018-01-19T12:15:10.886Z,22.4
2018-01-19T12:16:11.618Z,22.2
2018-01-19T12:17:12.927Z,23.3
2018-01-19T12:18:13.767Z,23.4
2018-01-19T12:19:14.612Z,23.6
2018-01-19T12:20:15.340Z,23.3
2018-01-19T12:21:16.071Z,23.4
2018-01-19T12:22:16.779Z,22.6
2018-01-19T12:23:17.847Z,23.6
2018-01-19T12:24:18.681Z,22.8
2018-01-19T12:25:19.419Z,23.2
2018-01-19T12:26:20.225Z,22.7
2018-01-19T12:27:21.024Z,23.4
2018-01-19T12:28:21.753Z,22.7
2018-01-19T12:29:23.550Z,22.1
2018-01-19T12:30:25.651Z,22.4
2018-01-19T12:31:27.777Z,22.4
2018-01-19T12:32:30.276Z,22.7
2018-01-19T12:33:32.166Z,22.1
2018-01-19T12:34:34.208Z,22.5
2018-01-19T12:35:35.201Z,21.2
2018-01-19T12:36:35.972Z,21.6
2018-01-19T12:37:36.700Z,22.2
2018-01-19T12:38:37.461Z,22.0
2018-01-19T12:39:38.188Z,20.9
2018-01-19T12:40:38.929Z,20.0
2018-01-19T12:41:39.750Z,20.5
2018-01-19T12:42:40.490Z,20.3
2018-01-19T12:43:41.241Z,20.7
2018-01-19T12:44:42.064Z,21.0
2018-01-19T12:45:42.741Z,19.1
2018-01-19T12:46:43.519Z,18.4
2018-01-19T12:47:44.237Z,18.3
2018-01-19T12:48:44.972Z,19.4
2018-01-19T12:49:45.754Z,18.4
2018-01-19T12:50:46.507Z,19.2
2018-01-19T12:51:47.321Z,18.9
2018-01-19T12:52:48.101Z,18.3
2018-01-19T12:53:48.793Z,18.7
2018-01-19T12:54:49.554Z,18.4
2018-01-19T12:55:50.377Z,17.7
2018-01-19T12:56:51.220Z,16.5
2018-01-19T12:57:51.919Z,15.8
2018-01-19T12:58:52.704Z,16.8
2018-01-19T12:59:53.436Z,15.5
2018-01-19T13:00:54.174Z,15.9
2018-01-19T13:01:55.019Z,16.2
2018-01-19T13:02:55.796Z,16.2
2018-01-19T13:03:56.501Z,15.7
2018-01-19T13:04:57.242Z,15.7
2018-01-19T13:05:58.063Z,15.4
2018-01-19T13:06:58.860Z,14.9
2018-01-19T13:07:59.661Z,16.0
2018-01-19T13:09:00.403Z,15.0
2018-01-19T13:10:01.132Z,14.0
2018-01-19T13:11:01.932Z,14.5
2018-01-19T13:12:02.668Z,14.4
2018-01-19T13:13:03.447Z,14.4
2018-01-19T13:14:04.167Z,13.2
2018-01-19T13:15:04.912Z,13.8
2018-01-19T13:16:05.617Z,13.4
2018-01-19T13:17:06.353Z,13.7
2018-01-19T13:18:07.157Z,14.6
2018-01-19T13:19:07.861Z,15.8
2018-01-19T13:20:08.590Z,16.3
2018-01-19T13:21:09.329Z,13.4
2018-01-19T13:22:10.066Z,11.8
2018-01-19T13:23:10.851Z,12.2
2018-01-19T13:24:11.590Z,13.4
2018-01-19T13:25:12.433Z,13.6
2018-01-19T13:26:13.160Z,12.5
2018-01-19T13:27:13.878Z,13.9
2018-01-19T13:28:14.736Z,13.9
2018-01-19T13:29:15.472Z,13.9
2018-01-19T13:30:16.205Z,13.1